createdAt,value
2023-05-12T00:02:08.724Z,101299.69
2023-05-12T00:07:12.303Z,101298.88
2023-05-12T00:12:17.885Z,101291.66
2023-05-12T00:17:21.549Z,101295.25
2023-05-12T00:22:25.195Z,101289.78
2023-05-12T00:27:30.514Z,101290.44
2023-05-12T00:32:34.244Z,101288.06
2023-05-12T00:37:38.014Z,101293.81
2023-05-12T00:42:43.434Z,101291.81
2023-05-12T00:47:47.390Z,101288.06
2023-05-12T00:52:51.419Z,101291.03
2023-05-12T00:57:57.038Z,101296.31
2023-05-12T01:03:01.044Z,101297.03
2023-05-12T01:08:05.492Z,101299.16
2023-05-12T01:13:10.816Z,101298.75
2023-05-12T01:18:15.664Z,101294.66
2023-05-12T01:23:20.738Z,101300.22
2023-05-12T01:28:26.146Z,101303.34
2023-05-12T01:33:29.875Z,101303.63
2023-05-12T01:38:33.538Z,101299.56
2023-05-12T01:43:38.928Z,101300.38
2023-05-12T01:48:42.546Z,101304.69
2023-05-12T01:53:46.409Z,101312.97
2023-05-12T01:58:51.712Z,101312.34
2023-05-12T02:03:54.700Z,101312.19
2023-05-12T02:08:58.333Z,101323.84
2023-05-12T02:14:03.632Z,101320.81
2023-05-12T02:19:07.493Z,101323.41
2023-05-12T02:24:12.370Z,101317.72
2023-05-12T02:29:19.517Z,101322.88
2023-05-12T02:34:23.112Z,101320.84
2023-05-12T02:39:26.730Z,101331.44
2023-05-12T02:44:32.071Z,101334.22
2023-05-12T02:49:35.786Z,101336.19
2023-05-12T02:54:39.380Z,101327.69
2023-05-12T02:59:44.756Z,101333.56
2023-05-12T03:04:48.337Z,101328.41
2023-05-12T03:09:52.072Z,101334.19
2023-05-12T03:14:57.671Z,101336.16
2023-05-12T03:20:00.543Z,101332.03
2023-05-12T03:25:05.303Z,101327.75
2023-05-12T03:30:22.289Z,101333.38
2023-05-12T03:35:26.703Z,101343.25
2023-05-12T03:40:30.454Z,101338.56
2023-05-12T03:45:36.858Z,101340.66
2023-05-12T03:50:40.543Z,101342.84
2023-05-12T03:55:44.178Z,101333.31
2023-05-12T04:00:49.528Z,101338.53
2023-05-12T04:05:59.061Z,101337.16
2023-05-12T04:11:03.337Z,101339.41
2023-05-12T04:16:08.961Z,101338.06
2023-05-12T04:21:11.903Z,101351.91
2023-05-12T04:26:15.570Z,101347.75
2023-05-12T04:31:20.867Z,101350.47
2023-05-12T04:36:24.814Z,101360.41
2023-05-12T04:41:28.412Z,101358.28
2023-05-12T04:46:33.760Z,101366.44
2023-05-12T04:51:38.083Z,101363.25
2023-05-12T04:56:41.696Z,101362.56
2023-05-12T05:01:47.251Z,101366.34
2023-05-12T05:06:50.952Z,101372.09
2023-05-12T05:11:54.633Z,101367.06
2023-05-12T05:17:00.215Z,101373.41
2023-05-12T05:22:03.873Z,101380.63
2023-05-12T05:27:07.620Z,101367.84
2023-05-12T05:32:12.902Z,101369.22
2023-05-12T05:37:16.579Z,101366.72
2023-05-12T05:42:20.204Z,101361.78
2023-05-12T05:47:25.514Z,101353.34
2023-05-12T05:52:29.151Z,101352.38
2023-05-12T05:57:32.775Z,101357.66
2023-05-12T06:02:38.284Z,101353.59
2023-05-12T06:07:42.089Z,101353.66
2023-05-12T06:12:45.733Z,101344.94
2023-05-12T06:17:51.035Z,101341.91
2023-05-12T06:22:54.687Z,101339.41
2023-05-12T06:27:58.347Z,101342.66
2023-05-12T06:33:05.145Z,101346.16
2023-05-12T06:38:08.880Z,101336.66
2023-05-12T06:43:12.537Z,101347.97
2023-05-12T06:48:17.835Z,101349.81
2023-05-12T06:53:23.363Z,101350.72
2023-05-12T06:58:28.568Z,101340.69
2023-05-12T07:03:34.828Z,101340.03
2023-05-12T07:08:38.511Z,101343.66
2023-05-12T07:13:42.209Z,101342.16
2023-05-12T07:18:47.849Z,101339.44
2023-05-12T07:23:51.571Z,101338.69
2023-05-12T07:28:55.189Z,101346.84
2023-05-12T07:34:00.410Z,101347.69
2023-05-12T07:39:04.153Z,101348.56
2023-05-12T07:44:08.583Z,101351.31
2023-05-12T07:49:13.876Z,101367.78
2023-05-12T07:54:17.512Z,101358.16
2023-05-12T07:59:21.101Z,101355.69
2023-05-12T08:04:27.447Z,101355.69
2023-05-12T08:09:31.099Z,101355.69
2023-05-12T08:14:34.707Z,101357.69
2023-05-12T08:19:39.967Z,101360.44
2023-05-12T08:24:43.661Z,101347.31
2023-05-12T08:29:47.275Z,101355.19
2023-05-12T08:34:52.928Z,101348.28
2023-05-12T08:39:57.295Z,101350.97
2023-05-12T08:45:01.379Z,101346.50
2023-05-12T08:50:08.460Z,101348.41
2023-05-12T08:55:13.056Z,101343.19
2023-05-12T09:00:18.042Z,101348.56
2023-05-12T09:05:23.851Z,101353.81
2023-05-12T09:15:42.134Z,101343.66
2023-05-12T09:20:48.530Z,101347.13
2023-05-12T09:26:00.740Z,101339.34
2023-05-12T09:31:14.968Z,101343.81
2023-05-12T09:36:20.902Z,101337.78
2023-05-12T09:41:24.633Z,101337.00
2023-05-12T09:46:28.360Z,101331.75
2023-05-12T09:51:33.672Z,101331.97
2023-05-12T09:56:39.412Z,101340.63
2023-05-12T10:01:43.335Z,101333.81
2023-05-12T10:06:49.132Z,101336.56
2023-05-12T10:11:54.080Z,101340.91
2023-05-12T10:16:58.651Z,101337.47
2023-05-12T10:22:04.801Z,101327.97
2023-05-12T10:27:08.050Z,101336.09
2023-05-12T10:32:12.091Z,101332.72
2023-05-12T10:37:17.376Z,101331.91
2023-05-12T10:42:23.188Z,101340.63
2023-05-12T10:47:27.296Z,101325.06
2023-05-12T10:52:32.735Z,101331.28
2023-05-12T10:57:36.655Z,101327.75
2023-05-12T11:02:51.418Z,101330.44
2023-05-12T11:08:00.430Z,101329.72
2023-05-12T11:13:04.753Z,101333.16
2023-05-12T11:18:08.400Z,101335.88
2023-05-12T11:23:14.579Z,101339.53
2023-05-12T11:28:17.505Z,101339.63
2023-05-12T11:33:24.140Z,101335.34
2023-05-12T11:38:29.436Z,101344.06
2023-05-12T11:43:33.012Z,101350.97
2023-05-12T11:48:36.628Z,101351.06
2023-05-12T11:53:43.506Z,101351.91
2023-05-12T11:58:54.681Z,101345.81
2023-05-12T12:03:58.392Z,101357.13
2023-05-12T12:09:03.715Z,101357.22
2023-05-12T12:14:07.348Z,101352.91
2023-05-12T12:19:11.201Z,101357.31
2023-05-12T12:24:16.526Z,101346.00
2023-05-12T12:29:20.212Z,101356.56
2023-05-12T12:34:23.906Z,101363.50
2023-05-12T12:39:29.869Z,101373.03
2023-05-12T12:44:33.520Z,101376.47
2023-05-12T12:49:37.110Z,101374.66
2023-05-12T12:54:42.371Z,101374.56
2023-05-12T12:59:45.958Z,101384.34
2023-05-12T13:04:49.651Z,101385.25
2023-05-12T13:09:54.877Z,101389.56
2023-05-12T13:14:59.412Z,101401.00
2023-05-12T13:20:03.233Z,101404.50
2023-05-12T13:25:09.580Z,101422.69
2023-05-12T13:30:13.911Z,101423.63
2023-05-12T13:35:17.877Z,101431.38
2023-05-12T13:40:24.265Z,101420.88
2023-05-12T13:45:27.181Z,101431.19
2023-05-12T13:50:33.407Z,101438.81
2023-05-12T13:55:40.960Z,101443.09
2023-05-12T14:00:44.849Z,101454.97
2023-05-12T14:05:48.487Z,101466.72
2023-05-12T14:10:53.806Z,101456.63
2023-05-12T14:15:57.687Z,101466.63
2023-05-12T14:21:01.734Z,101459.03
2023-05-12T14:26:07.005Z,101454.03
2023-05-12T14:31:10.725Z,101472.22
2023-05-12T14:36:14.451Z,101466.66
2023-05-12T14:41:19.717Z,101468.50
2023-05-12T14:46:23.340Z,101477.66
2023-05-12T14:51:27.056Z,101495.09
2023-05-12T14:56:32.337Z,101503.31
2023-05-12T15:01:35.991Z,101507.09
2023-05-12T15:06:39.624Z,101501.91
2023-05-12T15:11:45.051Z,101498.59
2023-05-12T15:16:48.723Z,101510.84
2023-05-12T15:21:52.343Z,101516.00
2023-05-12T15:27:00.465Z,101505.13
2023-05-12T15:32:05.311Z,101507.69
2023-05-12T15:37:08.893Z,101506.69
2023-05-12T15:42:14.703Z,101502.69
2023-05-12T15:47:22.896Z,101510.97
2023-05-12T15:52:26.616Z,101512.09
2023-05-12T15:57:31.991Z,101495.81
2023-05-12T16:02:35.697Z,101490.69
2023-05-12T16:07:39.425Z,101486.75
2023-05-12T16:12:46.546Z,101487.41
2023-05-12T16:17:50.560Z,101485.63
2023-05-12T16:22:54.205Z,101495.47
2023-05-12T16:27:59.519Z,101486.91
2023-05-12T16:33:04.848Z,101486.34
2023-05-12T16:38:08.488Z,101487.72
2023-05-12T16:43:13.786Z,101483.94
2023-05-12T16:48:16.633Z,101482.72
2023-05-12T16:53:20.246Z,101485.56
2023-05-12T16:58:25.682Z,101482.09
2023-05-12T17:03:29.611Z,101491.75
2023-05-12T17:08:33.399Z,101473.53
2023-05-12T17:13:40.033Z,101477.28
2023-05-12T17:23:50.265Z,101466.06
2023-05-12T17:28:55.670Z,101483.41
2023-05-12T17:33:59.284Z,101474.41
2023-05-12T17:39:02.984Z,101480.44
2023-05-12T17:44:08.323Z,101475.19
2023-05-12T17:49:11.945Z,101477.41
2023-05-12T17:54:15.618Z,101482.53
2023-05-12T17:59:20.939Z,101486.56
2023-05-12T18:04:24.598Z,101477.03
2023-05-12T18:09:28.316Z,101478.84
2023-05-12T18:14:36.701Z,101476.00
2023-05-12T18:19:40.280Z,101467.09
2023-05-12T18:24:43.915Z,101461.13
2023-05-12T18:29:49.232Z,101465.56
2023-05-12T18:34:52.834Z,101467.50
2023-05-12T18:39:56.795Z,101470.41
2023-05-12T18:45:02.073Z,101460.41
2023-05-12T18:50:06.261Z,101455.84
2023-05-12T18:55:10.276Z,101449.72
2023-05-12T19:00:16.352Z,101441.88
2023-05-12T19:05:20.454Z,101437.50
2023-05-12T19:10:24.346Z,101443.00
2023-05-12T19:15:29.702Z,101432.50
2023-05-12T19:20:33.481Z,101426.28
2023-05-12T19:25:37.098Z,101424.16
2023-05-12T19:30:42.463Z,101412.16
2023-05-12T19:35:46.146Z,101408.69
2023-05-12T19:40:49.810Z,101413.75
2023-05-12T19:45:55.402Z,101398.19
2023-05-12T19:51:01.461Z,101398.88
2023-05-12T19:56:05.429Z,101386.09
2023-05-12T20:01:11.881Z,101397.72
2023-05-12T20:06:15.601Z,101387.06
2023-05-12T20:11:19.256Z,101384.59
2023-05-12T20:16:24.591Z,101382.03
2023-05-12T20:21:28.271Z,101374.75
2023-05-12T20:26:32.591Z,101371.81
2023-05-12T20:31:39.084Z,101362.38
2023-05-12T20:36:42.789Z,101357.00
2023-05-12T20:41:47.079Z,101346.78
2023-05-12T20:46:52.485Z,101352.28
2023-05-12T20:51:56.354Z,101341.22
2023-05-12T20:57:00.019Z,101342.03
2023-05-12T21:02:06.621Z,101334.31
2023-05-12T21:07:10.304Z,101329.91
2023-05-12T21:12:13.990Z,101331.38
2023-05-12T21:17:19.727Z,101321.13
2023-05-12T21:22:23.325Z,101315.66
2023-05-12T21:27:27.023Z,101314.59
2023-05-12T21:32:32.276Z,101311.19
2023-05-12T21:37:36.045Z,101304.81
2023-05-12T21:42:39.746Z,101295.78
2023-05-12T21:47:45.140Z,101294.97
2023-05-12T21:52:49.063Z,101283.19
2023-05-12T21:57:52.699Z,101288.28
2023-05-12T22:02:58.067Z,101278.44
2023-05-12T22:08:01.783Z,101280.38
2023-05-12T22:13:05.420Z,101278.06
2023-05-12T22:18:10.939Z,101273.44
2023-05-12T22:23:14.769Z,101266.28
2023-05-12T22:28:18.533Z,101266.06
2023-05-12T22:33:24.164Z,101252.28
2023-05-12T22:38:27.913Z,101251.69
2023-05-12T22:43:31.539Z,101235.75
2023-05-12T22:48:39.584Z,101232.47
2023-05-12T22:53:43.501Z,101229.06
2023-05-12T22:58:47.099Z,101221.03
2023-05-12T23:03:52.453Z,101218.13
2023-05-12T23:08:56.127Z,101211.94
2023-05-12T23:13:59.783Z,101203.19
2023-05-12T23:19:05.167Z,101202.59
2023-05-12T23:24:09.119Z,101194.81
2023-05-12T23:29:12.755Z,101185.06
2023-05-12T23:34:18.008Z,101181.66
2023-05-12T23:39:21.662Z,101174.00
2023-05-12T23:44:25.355Z,101173.50
2023-05-12T23:49:30.633Z,101166.09
2023-05-12T23:54:34.220Z,101159.66
2023-05-12T23:59:37.861Z,101152.72
